Time;durP1;ratioP1;P1;durP2;ratioP2;P2;SDS_P1;SDS_P2;PMS_P1;PMS_P2;Temp;Humidity;BMP_temperature;BMP_pressure;BME280_temperature;BME280_humidity;BME280_pressure;Samples;Min_cycle;Max_cycle;Signal;HPM_P1;HPM_P2
2023/07/12 00:00:28;;;;;;;;;2.00;2.00;;;;;26.59;38.07;100689.59;5061055;28;46402;-67
2023/07/12 00:02:55;;;;;;;;;3.50;3.50;;;;;26.56;38.63;100684.44;5061022;28;45461;-67
2023/07/12 00:05:22;;;;;;;;;2.25;2.25;;;;;26.53;38.35;100690.09;5059778;28;45285;-66
2023/07/12 00:07:47;;;;;;;;;3.00;2.75;;;;;26.50;38.11;100698.41;5060923;28;45492;-67
2023/07/12 00:10:21;;;;;;;;;1.25;1.25;;;;;26.47;38.75;100704.06;5060725;28;46091;-67
2023/07/12 00:12:48;;;;;;;;;2.25;2.25;;;;;26.43;38.36;100708.84;5059770;28;45351;-67
2023/07/12 00:15:19;;;;;;;;;3.25;3.25;;;;;26.40;38.13;100694.75;5060929;28;45450;-67
2023/07/12 00:17:45;;;;;;;;;3.75;2.25;;;;;26.36;38.52;100704.94;5060900;28;45303;-67
2023/07/12 00:20:27;;;;;;;;;1.75;1.75;;;;;26.34;38.12;100708.72;5059580;28;46109;-67
2023/07/12 00:22:53;;;;;;;;;3.75;3.00;;;;;26.27;38.25;100695.75;5060545;28;45359;-67
2023/07/12 00:25:21;;;;;;;;;2.75;2.75;;;;;26.25;38.92;100700.44;5059393;28;45366;-66
2023/07/12 00:27:46;;;;;;;;;2.00;2.00;;;;;26.24;38.44;100703.25;5060757;28;45376;-67
2023/07/12 00:30:16;;;;;;;;;2.75;2.00;;;;;26.21;38.41;100707.06;5060653;28;45466;-67
2023/07/12 00:32:42;;;;;;;;;3.00;3.00;;;;;26.15;38.63;100706.69;5060753;28;45372;-67
2023/07/12 00:35:11;;;;;;;;;2.00;2.00;;;;;26.12;39.00;100705.09;5060774;28;45347;-67
2023/07/12 00:37:36;;;;;;;;;3.50;1.50;;;;;26.10;38.52;100709.72;5060638;28;45487;-67
2023/07/12 00:40:07;;;;;;;;;2.75;2.75;;;;;26.07;38.89;100710.00;5060374;28;48618;-67
2023/07/12 00:42:39;;;;;;;;;2.25;2.25;;;;;26.03;38.73;100706.66;5059434;28;45691;-67
2023/07/12 00:45:05;;;;;;;;;1.00;1.00;;;;;26.03;38.48;100703.13;5060610;28;45316;-67
2023/07/12 00:47:32;;;;;;;;;3.00;2.00;;;;;25.98;38.72;100703.47;5062644;28;45424;-67
2023/07/12 00:49:57;;;;;;;;;0.75;0.75;;;;;25.95;38.71;100693.81;5080818;28;46198;-67
2023/07/12 00:52:23;;;;;;;;;2.75;2.00;;;;;25.94;39.02;100704.72;5080540;28;45311;-67
2023/07/12 00:54:53;;;;;;;;;2.00;2.00;;;;;25.91;38.63;100705.81;5080657;28;45276;-67
2023/07/12 00:57:20;;;;;;;;;4.00;1.50;;;;;25.90;39.44;100703.22;5076347;28;45678;-67
2023/07/12 00:59:45;;;;;;;;;2.25;1.00;;;;;25.85;38.79;100702.75;5060412;28;45223;-67
2023/07/12 01:02:14;;;;;;;;;2.25;1.00;;;;;25.85;38.67;100698.22;5060106;28;45231;-67
2023/07/12 01:04:44;;;;;;;;;1.25;0.00;;;;;25.82;39.47;100695.75;5060759;28;45314;-67
2023/07/12 01:07:10;;;;;;;;;2.75;2.75;;;;;25.80;39.48;100695.06;5060099;28;45440;-67
2023/07/12 01:09:35;;;;;;;;;2.00;2.00;;;;;25.83;38.96;100704.72;5059863;28;46262;-67
2023/07/12 01:12:01;;;;;;;;;1.75;1.75;;;;;25.81;39.30;100699.47;5059709;28;45178;-67
2023/07/12 01:14:26;;;;;;;;;1.50;1.50;;;;;25.82;39.53;100706.53;5060387;28;45227;-67
2023/07/12 01:16:58;;;;;;;;;2.00;2.00;;;;;25.81;39.39;100712.91;5060074;28;45238;-67
2023/07/12 01:19:24;;;;;;;;;1.50;1.50;;;;;25.81;39.27;100702.16;5058904;28;46097;-67
2023/07/12 01:21:51;;;;;;;;;2.00;2.00;;;;;25.77;39.49;100697.97;5059871;28;45252;-67
2023/07/12 01:24:18;;;;;;;;;2.00;2.00;;;;;25.76;38.97;100701.63;5060008;28;45181;-67
2023/07/12 01:26:48;;;;;;;;;3.50;2.25;;;;;25.77;39.55;100706.03;5059675;28;45525;-67
2023/07/12 01:29:14;;;;;;;;;4.00;2.50;;;;;25.77;39.26;100708.72;5059821;28;46079;-67
2023/07/12 01:31:40;;;;;;;;;3.00;2.00;;;;;25.76;39.30;100712.41;5062840;28;45246;-67
2023/07/12 01:34:08;;;;;;;;;1.00;1.00;;;;;25.76;39.64;100717.78;5063551;28;45383;-67
2023/07/12 01:36:33;;;;;;;;;1.75;1.75;;;;;25.75;39.16;100713.41;5063451;28;45297;-67
2023/07/12 01:39:00;;;;;;;;;1.25;1.25;;;;;25.75;39.52;100721.47;5063345;28;46339;-67
2023/07/12 01:41:27;;;;;;;;;1.00;1.00;;;;;25.73;39.22;100710.81;5063341;28;45407;-67
2023/07/12 01:43:53;;;;;;;;;3.75;2.25;;;;;25.72;39.92;100700.16;5063626;28;45351;-67
2023/07/12 01:46:19;;;;;;;;;2.00;2.00;;;;;25.70;39.75;100712.88;5063144;28;45502;-67
2023/07/12 01:48:44;;;;;;;;;3.75;2.00;;;;;25.67;39.61;100702.38;5077218;28;45222;-67
2023/07/12 01:51:10;;;;;;;;;2.00;2.00;;;;;25.66;39.76;100708.72;5083634;28;45200;-67
2023/07/12 01:53:36;;;;;;;;;2.00;2.00;;;;;25.62;40.16;100716.19;5083384;28;45234;-67
2023/07/12 01:56:03;;;;;;;;;3.00;2.00;;;;;25.57;39.74;100707.59;5083269;28;45457;-67
2023/07/12 01:58:29;;;;;;;;;2.75;2.25;;;;;25.55;40.69;100706.91;5069172;28;48310;-67
2023/07/12 02:00:55;;;;;;;;;3.00;3.00;;;;;25.51;40.76;100713.47;5063170;28;45347;-67
2023/07/12 02:03:20;;;;;;;;;3.00;2.00;;;;;25.45;40.88;100715.66;5061887;28;45474;-67
2023/07/12 02:05:46;;;;;;;;;1.50;1.50;;;;;25.41;40.82;100718.72;5061952;28;45338;-67
2023/07/12 02:08:12;;;;;;;;;3.25;2.00;;;;;25.35;41.02;100724.53;5062736;28;46437;-67
2023/07/12 02:10:47;;;;;;;;;2.25;2.25;;;;;25.28;40.78;100724.13;5062777;28;45366;-67
2023/07/12 02:16:15;;;;;;;;;1.25;1.25;;;;;25.13;40.94;100731.53;5063027;28;45355;-67
2023/07/12 02:18:41;;;;;;;;;2.00;2.00;;;;;25.09;41.22;100739.00;5062706;28;47183;-67
2023/07/12 02:21:25;;;;;;;;;1.25;1.25;;;;;25.06;40.84;100733.00;5062850;28;45273;-67
2023/07/12 02:23:52;;;;;;;;;3.50;1.50;;;;;25.01;40.85;100741.41;5071116;28;45386;-67
2023/07/12 02:26:17;;;;;;;;;1.50;1.50;;;;;24.97;40.87;100735.41;5082640;27;45595;-67
2023/07/12 02:28:43;;;;;;;;;2.00;2.00;;;;;24.92;40.96;100734.03;5083000;28;46298;-67
2023/07/12 02:31:17;;;;;;;;;2.50;1.00;;;;;24.87;41.37;100745.13;5082712;28;49529;-67
2023/07/12 02:33:42;;;;;;;;;2.75;1.00;;;;;24.81;41.45;100742.91;5083130;28;45333;-67
2023/07/12 02:36:08;;;;;;;;;1.00;1.00;;;;;24.77;41.46;100746.78;5082364;28;52528;-67
2023/07/12 02:38:33;;;;;;;;;1.00;1.00;;;;;24.71;41.60;100761.53;5082789;28;46045;-67
2023/07/12 02:40:59;;;;;;;;;2.00;1.00;;;;;24.67;41.55;100760.03;5081342;28;45324;-67
2023/07/12 02:43:24;;;;;;;;;1.00;1.00;;;;;24.60;41.66;100754.22;5080767;28;45348;-67
2023/07/12 02:45:50;;;;;;;;;0.00;0.00;;;;;24.56;41.71;100760.78;5080879;28;45772;-67
2023/07/12 02:48:15;;;;;;;;;0.00;0.00;;;;;24.54;41.60;100753.81;5072427;28;51880;-67
2023/07/12 02:50:40;;;;;;;;;1.00;1.00;;;;;24.50;41.53;100763.91;5082645;28;45249;-67
2023/07/12 02:53:28;;;;;;;;;0.75;0.75;;;;;24.49;41.52;100772.97;5082295;28;49692;-67
2023/07/12 02:55:53;;;;;;;;;0.00;0.00;;;;;24.45;41.41;100775.00;5082339;28;45386;-67
2023/07/12 02:58:19;;;;;;;;;0.50;0.00;;;;;24.41;41.63;100780.69;5069479;28;46106;-67
2023/07/12 03:00:44;;;;;;;;;0.00;0.00;;;;;24.37;41.63;100781.91;5062260;28;45307;-67
2023/07/12 03:03:09;;;;;;;;;0.50;0.50;;;;;24.31;41.83;100784.06;5062587;28;45297;-67
2023/07/12 03:05:36;;;;;;;;;0.50;0.50;;;;;24.25;41.97;100781.81;5062077;28;45308;-67
2023/07/12 03:08:02;;;;;;;;;0.00;0.00;;;;;24.21;42.03;100777.59;5060759;28;46517;-67
2023/07/12 03:10:27;;;;;;;;;0.00;0.00;;;;;24.16;41.70;100783.31;5061738;28;45299;-67
2023/07/12 03:12:54;;;;;;;;;0.00;0.00;;;;;24.13;42.09;100780.84;5062178;28;45349;-67
2023/07/12 03:15:19;;;;;;;;;0.50;0.50;;;;;24.09;41.80;100786.56;5060565;28;45288;-67
2023/07/12 03:17:45;;;;;;;;;0.75;0.75;;;;;24.04;41.90;100789.56;5061869;28;46111;-67
2023/07/12 03:20:11;;;;;;;;;0.00;0.00;;;;;23.99;41.94;100780.97;5061903;28;45364;-67
2023/07/12 03:22:36;;;;;;;;;0.50;0.50;;;;;23.95;42.04;100788.38;5061588;28;45182;-67
2023/07/12 03:25:01;;;;;;;;;9.25;8.00;;;;;23.91;42.00;100796.69;5061638;28;45667;-67
2023/07/12 03:27:27;;;;;;;;;0.00;0.00;;;;;23.86;42.18;100794.31;5061827;28;45359;-67
2023/07/12 03:29:52;;;;;;;;;0.00;0.00;;;;;23.81;42.56;100794.66;5061850;28;45244;-67
2023/07/12 03:32:17;;;;;;;;;0.00;0.00;;;;;23.78;42.33;100807.44;5061736;28;46080;-67
2023/07/12 03:34:43;;;;;;;;;1.75;0.00;;;;;23.73;42.18;100809.56;5061820;28;45618;-67
2023/07/12 03:37:08;;;;;;;;;1.00;0.00;;;;;23.71;42.54;100801.66;5060346;28;45885;-67
2023/07/12 03:39:33;;;;;;;;;0.00;0.00;;;;;23.63;42.89;100806.66;5061309;28;45315;-65
2023/07/12 03:41:59;;;;;;;;;0.00;0.00;;;;;23.60;42.62;100813.09;5061818;28;45273;-65
2023/07/12 03:44:24;;;;;;;;;0.00;0.00;;;;;23.55;42.66;100809.88;5061499;28;45318;-66
2023/07/12 03:46:49;;;;;;;;;0.00;0.00;;;;;23.50;42.82;100810.16;5060980;28;57560;-66
2023/07/12 03:49:14;;;;;;;;;0.00;0.00;;;;;23.44;43.16;100815.09;5079705;28;45298;-67
2023/07/12 03:51:40;;;;;;;;;0.00;0.00;;;;;23.41;42.83;100820.66;5081967;28;45334;-67
2023/07/12 03:54:06;;;;;;;;;2.00;1.00;;;;;23.36;42.91;100829.88;5081221;28;45302;-66
2023/07/12 03:56:31;;;;;;;;;1.00;0.00;;;;;23.30;42.81;100824.06;5081294;28;46098;-67
2023/07/12 03:58:56;;;;;;;;;0.25;0.00;;;;;23.22;42.58;100813.88;5061981;28;52260;-66
2023/07/12 04:01:22;;;;;;;;;0.00;0.00;;;;;23.23;42.74;100822.75;5061639;28;45338;-67
2023/07/12 04:03:47;;;;;;;;;2.00;1.00;;;;;23.21;42.51;100833.59;5059590;28;49371;-66
2023/07/12 04:06:12;;;;;;;;;1.00;1.00;;;;;23.11;42.58;100822.56;5061060;28;46057;-67
2023/07/12 04:08:38;;;;;;;;;3.00;2.00;;;;;23.14;42.34;100832.22;5060820;28;45364;-67
2023/07/12 04:11:04;;;;;;;;;1.00;1.00;;;;;23.09;42.07;100829.84;5061233;28;45244;-67
2023/07/12 04:13:30;;;;;;;;;1.00;1.00;;;;;23.05;42.12;100839.03;5059624;28;45621;-67
2023/07/12 04:15:57;;;;;;;;;2.00;1.00;;;;;23.00;42.34;100831.28;5060811;28;45342;-67
2023/07/12 04:18:23;;;;;;;;;2.50;2.00;;;;;22.97;42.18;100849.41;5060904;28;45229;-67
2023/07/12 04:20:49;;;;;;;;;1.00;1.00;;;;;22.92;42.12;100847.03;5059785;28;45411;-67
2023/07/12 04:23:14;;;;;;;;;1.00;1.00;;;;;22.84;42.23;100838.63;5060327;28;45306;-67
2023/07/12 04:25:40;;;;;;;;;1.50;1.00;;;;;22.79;42.46;100843.41;5060608;28;46147;-67
2023/07/12 04:28:05;;;;;;;;;1.75;1.00;;;;;22.75;42.35;100844.56;5060645;28;45354;-67
2023/07/12 04:30:30;;;;;;;;;2.50;1.75;;;;;22.68;42.40;100846.78;5060960;28;45372;-67
2023/07/12 04:32:56;;;;;;;;;1.00;1.00;;;;;22.65;42.68;100857.69;5059420;28;45289;-67
2023/07/12 04:35:21;;;;;;;;;3.00;3.00;;;;;22.60;41.89;100857.97;5060633;28;46142;-67
2023/07/12 04:37:49;;;;;;;;;2.50;1.50;;;;;22.55;42.00;100852.03;5060409;28;45426;-68
2023/07/12 04:40:15;;;;;;;;;1.50;1.00;;;;;22.50;42.21;100857.72;5069828;28;45277;-67
2023/07/12 04:42:41;;;;;;;;;2.25;2.00;;;;;22.50;41.96;100856.81;5063644;28;45236;-67
2023/07/12 04:45:09;;;;;;;;;1.00;1.00;;;;;22.46;42.59;100863.34;5060329;28;45437;-67
2023/07/12 04:47:35;;;;;;;;;2.00;1.00;;;;;22.37;42.39;100857.59;5064554;28;45285;-67
2023/07/12 04:50:02;;;;;;;;;1.25;1.00;;;;;22.40;42.52;100860.09;5081036;28;45439;-67
2023/07/12 04:52:27;;;;;;;;;1.00;1.00;;;;;22.39;42.32;100866.41;5080239;28;45314;-67
2023/07/12 04:54:57;;;;;;;;;1.00;1.00;;;;;22.35;42.45;100867.50;5080376;28;45444;-67
2023/07/12 04:57:23;;;;;;;;;3.50;1.25;;;;;22.33;42.35;100876.59;5076033;28;45449;-67
2023/07/12 04:59:48;;;;;;;;;1.50;1.00;;;;;22.29;42.65;100875.03;5066899;28;45968;-67
2023/07/12 05:02:13;;;;;;;;;4.00;2.00;;;;;22.29;42.87;100885.75;5060200;28;45539;-67
2023/07/12 05:04:39;;;;;;;;;3.00;1.00;;;;;22.27;42.69;100879.66;5059798;28;46892;-67
2023/07/12 05:07:09;;;;;;;;;0.75;0.75;;;;;22.18;42.97;100884.59;5058767;28;45334;-67
2023/07/12 05:09:35;;;;;;;;;2.25;2.25;;;;;22.13;42.55;100894.72;5060314;28;45263;-67
2023/07/12 05:12:00;;;;;;;;;3.25;1.50;;;;;22.12;42.81;100892.16;5059829;28;45406;-67
2023/07/12 05:14:26;;;;;;;;;1.00;1.00;;;;;22.09;42.80;100906.56;5058876;28;50110;-67
2023/07/12 05:16:51;;;;;;;;;0.75;0.75;;;;;22.00;42.90;100905.31;5059834;28;52466;-67
2023/07/12 05:19:16;;;;;;;;;1.00;1.00;;;;;22.03;42.69;100913.13;5059144;28;45518;-67
2023/07/12 05:21:43;;;;;;;;;1.25;1.25;;;;;22.01;43.00;100919.53;5059845;28;45235;-67
2023/07/12 05:24:08;;;;;;;;;3.00;1.75;;;;;22.01;42.66;100917.75;5059815;28;46226;-67
2023/07/12 05:26:33;;;;;;;;;3.00;1.00;;;;;21.99;42.65;100930.34;5059597;28;51384;-67
2023/07/12 05:28:59;;;;;;;;;4.00;2.25;;;;;22.00;42.82;100928.50;5060464;28;45299;-67
2023/07/12 05:31:24;;;;;;;;;1.50;1.25;;;;;21.99;43.14;100935.69;5059806;28;45447;-67
2023/07/12 05:33:50;;;;;;;;;1.75;1.75;;;;;21.98;42.91;100941.13;5059689;28;45676;-67
2023/07/12 05:36:16;;;;;;;;;3.50;2.00;;;;;21.93;43.02;100933.38;5059211;28;57957;-67
2023/07/12 05:38:41;;;;;;;;;3.25;2.25;;;;;21.90;43.07;100936.25;5060055;28;45280;-67
2023/07/12 05:41:07;;;;;;;;;1.50;1.50;;;;;21.91;43.06;100936.16;5059610;28;45395;-67
2023/07/12 05:43:34;;;;;;;;;3.00;3.00;;;;;21.84;43.25;100936.59;5065531;28;47242;-67
2023/07/12 05:45:59;;;;;;;;;1.75;1.75;;;;;21.86;43.11;100935.56;5059605;28;45170;-67
2023/07/12 05:48:26;;;;;;;;;3.50;3.00;;;;;21.88;43.46;100933.63;5071158;28;45262;-67
2023/07/12 05:50:53;;;;;;;;;2.25;2.25;;;;;21.88;43.28;100930.09;5079887;28;45537;-67
2023/07/12 05:53:19;;;;;;;;;2.00;2.00;;;;;21.87;42.95;100939.97;5079632;28;46308;-67
2023/07/12 05:55:44;;;;;;;;;3.00;1.00;;;;;21.87;43.46;100941.75;5079468;28;45424;-67
2023/07/12 05:58:10;;;;;;;;;1.25;1.00;;;;;21.82;43.22;100947.34;5068566;28;45241;-67
2023/07/12 06:00:35;;;;;;;;;3.25;1.50;;;;;21.83;43.33;100953.59;5072878;28;45402;-66
2023/07/12 06:03:00;;;;;;;;;5.25;2.25;;;;;21.80;43.46;100961.78;5058494;28;46663;-67
2023/07/12 06:05:26;;;;;;;;;2.75;2.75;;;;;21.79;43.55;100960.06;5059572;28;45340;-67
2023/07/12 06:07:51;;;;;;;;;1.50;1.50;;;;;21.74;43.27;100953.16;5059442;28;45569;-66
2023/07/12 06:10:17;;;;;;;;;3.00;2.00;;;;;21.74;43.22;100954.97;5059326;28;45324;-67
2023/07/12 06:12:43;;;;;;;;;2.50;2.25;;;;;21.75;43.50;100960.25;5059475;28;46049;-67
2023/07/12 06:15:09;;;;;;;;;4.00;1.00;;;;;21.73;43.34;100955.94;5059219;28;45311;-67
2023/07/12 06:17:34;;;;;;;;;3.75;3.00;;;;;21.73;43.33;100958.59;5060997;28;45315;-67
2023/07/12 06:19:59;;;;;;;;;4.00;1.50;;;;;21.69;43.09;100963.25;5062561;28;45165;-67
2023/07/12 06:22:25;;;;;;;;;2.00;2.00;;;;;21.68;43.14;100971.38;5062444;28;45379;-67
2023/07/12 06:24:50;;;;;;;;;1.25;1.25;;;;;21.67;43.31;100975.00;5062426;28;45201;-67
2023/07/12 06:27:15;;;;;;;;;1.50;1.00;;;;;21.65;43.68;100969.75;5062747;28;45681;-67
2023/07/12 06:29:42;;;;;;;;;2.00;1.50;;;;;21.63;43.31;100979.66;5062573;28;45267;-67
2023/07/12 06:32:10;;;;;;;;;1.25;1.25;;;;;21.59;43.07;100973.63;5062699;28;46300;-67
2023/07/12 06:34:35;;;;;;;;;1.00;1.00;;;;;21.58;43.34;100974.59;5061000;28;45273;-67
2023/07/12 06:37:01;;;;;;;;;2.00;2.00;;;;;21.60;43.03;100974.50;5062791;28;45370;-65
2023/07/12 06:39:26;;;;;;;;;2.00;2.00;;;;;21.57;42.99;100980.88;5062188;28;45558;-65
2023/07/12 06:41:51;;;;;;;;;1.00;1.00;;;;;21.57;43.46;100986.22;5062629;28;45367;-65
2023/07/12 06:44:17;;;;;;;;;1.00;1.00;;;;;21.57;43.31;100982.69;5062267;28;45291;-65
2023/07/12 06:46:42;;;;;;;;;3.00;1.75;;;;;21.54;43.37;100980.16;5062561;28;45366;-66
2023/07/12 06:49:08;;;;;;;;;1.00;1.00;;;;;21.53;43.10;100984.63;5078254;28;45670;-65
2023/07/12 06:51:34;;;;;;;;;1.00;1.00;;;;;21.54;42.99;100985.50;5072102;28;45661;-65
2023/07/12 06:53:59;;;;;;;;;3.75;2.00;;;;;21.54;43.45;100989.03;5061808;28;45423;-67
2023/07/12 06:56:24;;;;;;;;;1.00;1.00;;;;;21.57;43.59;100993.38;5066020;28;45162;-65
2023/07/12 06:58:49;;;;;;;;;1.00;1.00;;;;;21.61;42.94;100989.59;5063671;28;45638;-65
2023/07/12 07:01:15;;;;;;;;;3.75;3.00;;;;;21.65;42.95;100988.47;5062140;28;45990;-67
2023/07/12 07:03:40;;;;;;;;;2.25;1.50;;;;;21.68;43.22;100990.94;5061710;28;53294;-67
2023/07/12 07:06:05;;;;;;;;;3.25;1.75;;;;;21.70;43.55;100991.72;5060922;28;45162;-67
2023/07/12 07:08:31;;;;;;;;;2.00;2.00;;;;;21.73;42.91;101001.41;5061866;28;45537;-67
2023/07/12 07:10:57;;;;;;;;;2.00;2.00;;;;;21.67;42.96;100994.59;5061918;28;46109;-67
2023/07/12 07:13:23;;;;;;;;;3.75;2.00;;;;;21.73;43.45;101002.25;5061972;28;45243;-67
2023/07/12 07:15:49;;;;;;;;;3.50;2.50;;;;;21.68;43.28;101011.50;5062208;27;45367;-67
2023/07/12 07:18:15;;;;;;;;;2.00;2.00;;;;;21.71;43.15;101006.84;5073661;28;45346;-67
2023/07/12 07:20:41;;;;;;;;;2.25;2.25;;;;;21.71;43.37;101013.97;5061799;28;46387;-67
2023/07/12 07:23:07;;;;;;;;;1.50;1.50;;;;;21.72;42.96;101005.88;5072924;28;45284;-67
2023/07/12 07:25:33;;;;;;;;;1.00;1.00;;;;;21.75;43.33;101010.19;5061838;28;45284;-67
2023/07/12 07:27:58;;;;;;;;;1.25;1.00;;;;;21.75;42.64;101016.41;5061521;28;45345;-67
2023/07/12 07:30:23;;;;;;;;;2.00;1.00;;;;;21.70;43.15;101005.09;5061807;28;46102;-68
2023/07/12 07:32:49;;;;;;;;;2.00;1.00;;;;;21.72;42.88;101021.94;5061597;28;45217;-67
2023/07/12 07:35:15;;;;;;;;;1.75;1.75;;;;;21.72;43.00;101021.94;5061876;28;45285;-67
2023/07/12 07:37:40;;;;;;;;;2.00;2.00;;;;;21.69;42.70;101006.06;5061441;28;45391;-67
2023/07/12 07:40:07;;;;;;;;;2.00;2.00;;;;;21.68;42.94;101006.16;5061663;28;46444;-67
2023/07/12 07:42:32;;;;;;;;;3.00;3.00;;;;;21.70;42.39;101015.81;5061558;28;45254;-67
2023/07/12 07:44:58;;;;;;;;;1.00;1.00;;;;;21.70;42.62;101007.78;5060381;28;45501;-67
2023/07/12 07:47:23;;;;;;;;;2.00;2.00;;;;;21.68;42.55;101016.84;5062612;28;45203;-67
2023/07/12 07:49:48;;;;;;;;;1.00;1.00;;;;;21.65;42.79;101007.19;5081705;28;47351;-65
2023/07/12 07:52:14;;;;;;;;;2.25;2.00;;;;;21.77;42.87;101018.97;5081541;28;45476;-65
2023/07/12 07:54:39;;;;;;;;;1.75;1.75;;;;;21.80;42.84;101021.50;5081852;28;45691;-67
2023/07/12 07:57:06;;;;;;;;;1.00;1.00;;;;;21.85;42.65;101018.56;5079046;28;45552;-67
2023/07/12 07:59:31;;;;;;;;;1.50;1.00;;;;;21.87;42.34;101020.19;5061079;28;47152;-67
2023/07/12 08:01:57;;;;;;;;;4.00;2.00;;;;;21.91;42.34;101010.16;5060998;28;45334;-67
2023/07/12 08:04:23;;;;;;;;;3.00;1.00;;;;;21.91;42.64;101023.53;5061483;28;45469;-67
2023/07/12 08:06:50;;;;;;;;;2.00;2.00;;;;;21.94;42.53;101026.06;5060900;28;45333;-67
2023/07/12 08:09:15;;;;;;;;;4.75;3.50;;;;;21.99;41.95;101026.66;5061115;28;46094;-66
2023/07/12 08:11:42;;;;;;;;;2.25;1.50;;;;;22.03;42.53;101027.34;5060694;28;45256;-65
2023/07/12 08:14:07;;;;;;;;;1.50;1.50;;;;;22.05;42.30;101026.28;5061058;28;45146;-65
2023/07/12 08:16:35;;;;;;;;;1.75;1.75;;;;;22.07;42.35;101031.53;5060919;28;45267;-65
2023/07/12 08:19:03;;;;;;;;;3.00;1.50;;;;;22.11;42.17;101027.72;5060976;28;46247;-67
2023/07/12 08:21:30;;;;;;;;;3.25;2.00;;;;;22.14;42.08;101022.22;5060517;28;45260;-67
2023/07/12 08:23:55;;;;;;;;;1.00;1.00;;;;;22.21;41.82;101020.03;5059528;28;45175;-67
2023/07/12 08:26:20;;;;;;;;;2.75;2.25;;;;;22.24;41.89;101023.41;5060753;28;45390;-67
2023/07/12 08:28:46;;;;;;;;;1.00;1.00;;;;;22.26;41.97;101028.66;5060885;28;45860;-67
2023/07/12 08:31:12;;;;;;;;;2.00;1.00;;;;;22.32;41.91;101033.66;5060781;28;45252;-66
2023/07/12 08:33:37;;;;;;;;;1.75;1.75;;;;;22.35;42.00;101017.41;5060788;28;45960;-65
2023/07/12 08:36:02;;;;;;;;;2.50;1.50;;;;;22.38;41.86;101019.94;5060659;28;45504;-67
2023/07/12 08:38:31;;;;;;;;;2.00;1.25;;;;;22.42;41.48;101017.94;5060451;28;45331;-65
2023/07/12 08:40:57;;;;;;;;;5.50;1.75;;;;;22.48;41.42;101027.44;5059472;28;45402;-67
2023/07/12 08:43:31;;;;;;;;;0.50;0.50;;;;;22.50;41.31;101023.72;5060846;28;45331;-67
2023/07/12 08:46:12;;;;;;;;;1.00;1.00;;;;;22.59;41.39;101030.34;5060292;28;45245;-67
2023/07/12 08:48:38;;;;;;;;;2.00;2.00;;;;;22.65;41.29;101034.44;5071900;28;45426;-67
2023/07/12 08:51:13;;;;;;;;;1.25;1.25;;;;;22.69;40.91;101041.31;5060935;28;45194;-67
2023/07/12 08:53:41;;;;;;;;;3.00;1.25;;;;;22.71;41.08;101039.41;5060371;28;45320;-65
2023/07/12 08:56:12;;;;;;;;;1.00;1.00;;;;;22.73;41.11;101035.69;5061331;28;45434;-66
2023/07/12 08:58:43;;;;;;;;;1.00;1.00;;;;;22.77;40.81;101036.38;5064952;28;46223;-65
2023/07/12 09:01:19;;;;;;;;;0.00;0.00;;;;;22.82;40.83;101041.47;5060416;28;45225;-65
2023/07/12 09:03:44;;;;;;;;;2.00;2.00;;;;;22.81;41.16;101048.63;5060390;28;45498;-65
2023/07/12 09:06:15;;;;;;;;;4.00;1.25;;;;;22.86;40.68;101041.16;5059088;28;45849;-65
2023/07/12 09:08:45;;;;;;;;;1.00;0.25;;;;;22.90;41.10;101047.19;5058735;28;46292;-65
2023/07/12 09:11:29;;;;;;;;;2.75;2.75;;;;;22.92;41.01;101050.66;5059982;28;45326;-65
2023/07/12 09:13:56;;;;;;;;;2.00;2.00;;;;;22.99;40.76;101045.75;5068107;28;45421;-65
2023/07/12 09:16:34;;;;;;;;;2.75;2.00;;;;;23.02;40.84;101048.28;5080360;28;45450;-65
2023/07/12 09:19:13;;;;;;;;;2.75;1.25;;;;;23.05;40.71;101050.75;5078998;28;47082;-65
2023/07/12 09:21:38;;;;;;;;;2.25;2.25;;;;;23.08;40.65;101045.22;5078819;28;45968;-65
2023/07/12 09:24:15;;;;;;;;;1.00;1.00;;;;;23.13;40.36;101055.63;5080262;28;45730;-65
2023/07/12 09:26:40;;;;;;;;;0.00;0.00;;;;;23.13;40.33;101052.94;5078847;28;45221;-67
2023/07/12 09:29:07;;;;;;;;;1.00;1.00;;;;;23.17;40.26;101049.19;5078925;28;46958;-67
2023/07/12 09:31:35;;;;;;;;;0.50;0.25;;;;;23.18;40.27;101048.19;5080274;28;45250;-67
2023/07/12 09:34:05;;;;;;;;;1.00;1.00;;;;;23.19;39.99;101056.16;5080290;28;45317;-67
2023/07/12 09:36:34;;;;;;;;;0.75;0.75;;;;;23.19;39.83;101056.16;5078383;28;45514;-67
2023/07/12 09:39:02;;;;;;;;;3.50;1.00;;;;;23.19;39.68;101052.59;5079919;27;46234;-67
2023/07/12 09:41:28;;;;;;;;;2.00;0.00;;;;;23.23;39.73;101055.94;5080186;28;45300;-67
2023/07/12 09:43:56;;;;;;;;;0.00;0.00;;;;;23.26;39.57;101066.47;5080170;28;45382;-67
2023/07/12 09:46:36;;;;;;;;;2.50;1.50;;;;;23.31;39.61;101061.72;5074042;28;45266;-67
2023/07/12 09:49:04;;;;;;;;;2.50;1.25;;;;;23.35;39.07;101064.06;5075873;28;46218;-67
2023/07/12 09:52:03;;;;;;;;;1.00;1.00;;;;;23.41;39.31;101067.31;5080041;28;45693;-67
2023/07/12 09:54:55;;;;;;;;;0.00;0.00;;;;;23.46;39.33;101059.84;5083612;28;45303;-65
2023/07/12 09:57:58;;;;;;;;;1.00;1.00;;;;;23.53;39.35;101058.50;5077717;28;45389;-67
2023/07/12 10:00:39;;;;;;;;;2.00;1.00;;;;;23.59;39.08;101057.28;5062905;28;45354;-65
2023/07/12 10:03:24;;;;;;;;;1.25;1.25;;;;;23.65;39.18;101064.94;5063263;28;45442;-66
2023/07/12 10:05:58;;;;;;;;;0.75;0.75;;;;;23.68;39.05;101062.91;5083486;28;45342;-65
2023/07/12 10:08:38;;;;;;;;;2.00;0.00;;;;;23.71;38.51;101061.84;5081603;28;45412;-66
2023/07/12 10:11:11;;;;;;;;;0.75;0.75;;;;;23.78;38.74;101059.63;5083391;28;45468;-66
2023/07/12 10:13:53;;;;;;;;;0.00;0.00;;;;;23.84;38.46;101059.22;5083114;28;45340;-66
2023/07/12 10:16:31;;;;;;;;;1.00;1.00;;;;;23.88;38.53;101060.72;5083445;28;45447;-66
2023/07/12 10:19:00;;;;;;;;;1.00;1.00;;;;;23.95;38.15;101056.72;5082696;28;45543;-66
2023/07/12 10:21:26;;;;;;;;;0.00;0.00;;;;;24.01;38.59;101055.44;5082947;28;45313;-66
2023/07/12 10:23:56;;;;;;;;;1.00;1.00;;;;;24.05;38.11;101056.09;5081693;28;45280;-66
2023/07/12 10:26:22;;;;;;;;;1.00;0.00;;;;;24.13;38.33;101059.16;5083043;28;45458;-66
2023/07/12 10:28:58;;;;;;;;;1.00;1.00;;;;;24.21;38.06;101059.50;5082998;28;45481;-66
2023/07/12 10:31:38;;;;;;;;;2.00;2.00;;;;;24.25;38.09;101057.47;5081116;28;45454;-66
2023/07/12 10:34:17;;;;;;;;;3.00;1.00;;;;;24.33;38.01;101056.00;5082801;28;45197;-66
2023/07/12 10:36:46;;;;;;;;;1.00;1.00;;;;;24.42;37.91;101054.50;5081647;28;45489;-66
2023/07/12 10:39:12;;;;;;;;;2.00;2.00;;;;;24.54;37.82;101042.09;5082595;28;45235;-66
2023/07/12 10:42:00;;;;;;;;;2.00;1.00;;;;;24.75;37.79;101044.28;5082576;28;45231;-66
2023/07/12 10:44:32;;;;;;;;;1.75;1.00;;;;;24.93;37.58;101042.13;5081153;28;45416;-66
2023/07/12 10:47:01;;;;;;;;;1.75;1.75;;;;;25.19;38.05;101037.59;5071671;28;45236;-66
2023/07/12 10:49:46;;;;;;;;;0.25;0.25;;;;;25.46;38.09;101045.53;5082043;28;45570;-65
2023/07/12 10:52:11;;;;;;;;;1.75;0.25;;;;;25.70;37.86;101049.22;5082223;28;46383;-66
2023/07/12 10:54:39;;;;;;;;;1.00;1.00;;;;;25.92;36.93;101038.63;5082559;28;45294;-66
2023/07/12 10:57:21;;;;;;;;;1.00;1.00;;;;;26.18;36.91;101038.50;5079910;28;45177;-65
2023/07/12 10:59:47;;;;;;;;;1.00;1.00;;;;;26.47;36.75;101043.50;5060937;28;45449;-66
2023/07/12 11:02:19;;;;;;;;;1.50;1.00;;;;;26.73;36.58;101043.34;5075361;28;47105;-65
2023/07/12 11:04:48;;;;;;;;;0.50;0.50;;;;;27.00;36.91;101045.72;5061738;28;45366;-65
2023/07/12 11:07:14;;;;;;;;;0.75;0.75;;;;;27.17;35.72;101030.03;5061786;28;45269;-65
2023/07/12 11:09:43;;;;;;;;;2.00;2.00;;;;;27.46;35.82;101041.22;5062034;28;45225;-65
2023/07/12 11:12:09;;;;;;;;;0.00;0.00;;;;;27.68;36.24;101042.16;5061628;28;46790;-65
2023/07/12 11:14:37;;;;;;;;;2.00;2.00;;;;;27.87;35.58;101036.09;5061778;28;45457;-65
2023/07/12 11:17:06;;;;;;;;;2.00;1.00;;;;;28.03;35.24;101041.06;5061906;28;45382;-65
2023/07/12 11:19:40;;;;;;;;;1.00;1.00;;;;;28.13;35.08;101044.72;5060463;28;45490;-65
2023/07/12 11:22:47;;;;;;;;;1.00;1.00;;;;;28.26;34.47;101046.41;5061559;28;45465;-65
2023/07/12 11:25:35;;;;;;;;;1.00;1.00;;;;;28.35;34.25;101035.69;5067851;28;45392;-65
2023/07/12 11:28:06;;;;;;;;;1.25;1.25;;;;;28.51;34.52;101040.59;5064413;28;45477;-65
2023/07/12 11:30:38;;;;;;;;;1.00;1.00;;;;;28.67;34.37;101037.47;5061785;28;45381;-66